Hodgdon, Maine
Current Conditions -  °F | °C
As of 4:53 AM on Friday 24 Oct 2014 (Local Time) from KHUL Reporting Station
Moderate Rain Moderate Rain  
Wind Chill: 39°   Ceiling: 400
Heat Index: 43°   Visibility: 3mi
Dew Point: 41°   Wind: 7mph
Humidity: 93%   Direction: 10°N
Pressure: 29.76"   Gusts: NA
Location:  46.1163°N, 67.9329°W
Report Text: KHUL 240853Z AUTO 01006KT 3SM RA BR OVC004 06/05 A2976 RMK AO2 SLP080 P0013 60030 T00610050 56008
Loading
Personal Weather Stations






























Interactive Weather Map
Tropical Storm Tracking
New forecast layout! Learn more

10-Day Weather Forecast

Advertisements
Track Severe Weather on mobile